sensor_id;sensor_type;location;lat;lon;timestamp;P1;durP1;ratioP1;P2;durP2;ratioP2
42840;SDS011;28491;46.898;7.660;2024-02-23T00:01:03;0.28;;;0.28;;
42840;SDS011;28491;46.898;7.660;2024-02-23T00:03:28;0.30;;;0.30;;
42840;SDS011;28491;46.898;7.660;2024-02-23T00:05:54;0.20;;;0.20;;
42840;SDS011;28491;46.898;7.660;2024-02-23T00:08:19;0.52;;;0.30;;
42840;SDS011;28491;46.898;7.660;2024-02-23T00:10:45;0.30;;;0.30;;
42840;SDS011;28491;46.898;7.660;2024-02-23T00:13:11;0.20;;;0.20;;
42840;SDS011;28491;46.898;7.660;2024-02-23T00:15:36;0.45;;;0.45;;
42840;SDS011;28491;46.898;7.660;2024-02-23T00:18:02;0.30;;;0.30;;
42840;SDS011;28491;46.898;7.660;2024-02-23T00:20:29;0.30;;;0.30;;
42840;SDS011;28491;46.898;7.660;2024-02-23T00:22:54;0.30;;;0.25;;
42840;SDS011;28491;46.898;7.660;2024-02-23T00:25:20;1.75;;;0.30;;
42840;SDS011;28491;46.898;7.660;2024-02-23T00:27:46;1.25;;;0.30;;
42840;SDS011;28491;46.898;7.660;2024-02-23T00:30:12;0.57;;;0.57;;
42840;SDS011;28491;46.898;7.660;2024-02-23T00:32:38;0.60;;;0.32;;
42840;SDS011;28491;46.898;7.660;2024-02-23T00:35:04;0.30;;;0.30;;
42840;SDS011;28491;46.898;7.660;2024-02-23T00:37:29;0.38;;;0.38;;
42840;SDS011;28491;46.898;7.660;2024-02-23T00:40:00;0.30;;;0.30;;
42840;SDS011;28491;46.898;7.660;2024-02-23T00:44:55;0.30;;;0.30;;
42840;SDS011;28491;46.898;7.660;2024-02-23T00:47:20;0.28;;;0.28;;
42840;SDS011;28491;46.898;7.660;2024-02-23T00:49:46;0.47;;;0.40;;
42840;SDS011;28491;46.898;7.660;2024-02-23T00:52:11;0.28;;;0.28;;
42840;SDS011;28491;46.898;7.660;2024-02-23T00:54:37;0.30;;;0.30;;
42840;SDS011;28491;46.898;7.660;2024-02-23T00:57:02;0.30;;;0.30;;
42840;SDS011;28491;46.898;7.660;2024-02-23T00:59:28;0.30;;;0.30;;
42840;SDS011;28491;46.898;7.660;2024-02-23T01:01:54;0.95;;;0.35;;
42840;SDS011;28491;46.898;7.660;2024-02-23T01:04:20;0.40;;;0.40;;
42840;SDS011;28491;46.898;7.660;2024-02-23T01:06:46;0.47;;;0.47;;
42840;SDS011;28491;46.898;7.660;2024-02-23T01:09:12;0.43;;;0.43;;
42840;SDS011;28491;46.898;7.660;2024-02-23T01:11:38;0.40;;;0.40;;
42840;SDS011;28491;46.898;7.660;2024-02-23T01:14:03;0.90;;;0.32;;
42840;SDS011;28491;46.898;7.660;2024-02-23T01:16:30;0.30;;;0.30;;
42840;SDS011;28491;46.898;7.660;2024-02-23T01:18:57;0.85;;;0.40;;
42840;SDS011;28491;46.898;7.660;2024-02-23T01:21:23;0.30;;;0.30;;
42840;SDS011;28491;46.898;7.660;2024-02-23T01:23:48;0.30;;;0.30;;
42840;SDS011;28491;46.898;7.660;2024-02-23T01:26:14;1.15;;;0.40;;
42840;SDS011;28491;46.898;7.660;2024-02-23T01:28:39;1.02;;;0.45;;
42840;SDS011;28491;46.898;7.660;2024-02-23T01:31:07;0.30;;;0.30;;
42840;SDS011;28491;46.898;7.660;2024-02-23T01:33:35;0.30;;;0.30;;
42840;SDS011;28491;46.898;7.660;2024-02-23T01:36:03;1.08;;;0.55;;
42840;SDS011;28491;46.898;7.660;2024-02-23T01:38:29;0.60;;;0.60;;
42840;SDS011;28491;46.898;7.660;2024-02-23T01:40:57;0.80;;;0.50;;
42840;SDS011;28491;46.898;7.660;2024-02-23T01:43:23;0.55;;;0.40;;
42840;SDS011;28491;46.898;7.660;2024-02-23T01:45:49;0.77;;;0.50;;
42840;SDS011;28491;46.898;7.660;2024-02-23T01:48:14;1.20;;;0.77;;
42840;SDS011;28491;46.898;7.660;2024-02-23T01:50:41;0.55;;;0.55;;
42840;SDS011;28491;46.898;7.660;2024-02-23T01:53:07;0.50;;;0.50;;
42840;SDS011;28491;46.898;7.660;2024-02-23T01:55:35;0.35;;;0.35;;
42840;SDS011;28491;46.898;7.660;2024-02-23T01:58:03;0.40;;;0.40;;
42840;SDS011;28491;46.898;7.660;2024-02-23T02:00:29;2.30;;;0.50;;
42840;SDS011;28491;46.898;7.660;2024-02-23T02:02:56;0.32;;;0.32;;
42840;SDS011;28491;46.898;7.660;2024-02-23T02:05:22;1.30;;;0.50;;
42840;SDS011;28491;46.898;7.660;2024-02-23T02:07:48;0.30;;;0.30;;
42840;SDS011;28491;46.898;7.660;2024-02-23T02:10:18;2.92;;;0.63;;
42840;SDS011;28491;46.898;7.660;2024-02-23T02:12:45;0.60;;;0.45;;
42840;SDS011;28491;46.898;7.660;2024-02-23T02:15:11;0.65;;;0.40;;
42840;SDS011;28491;46.898;7.660;2024-02-23T02:17:36;1.42;;;1.15;;
42840;SDS011;28491;46.898;7.660;2024-02-23T02:20:02;0.55;;;0.50;;
42840;SDS011;28491;46.898;7.660;2024-02-23T02:22:32;2.15;;;0.60;;
42840;SDS011;28491;46.898;7.660;2024-02-23T02:24:58;2.72;;;0.55;;
42840;SDS011;28491;46.898;7.660;2024-02-23T02:27:24;0.47;;;0.30;;
42840;SDS011;28491;46.898;7.660;2024-02-23T02:29:52;0.47;;;0.40;;
42840;SDS011;28491;46.898;7.660;2024-02-23T02:32:18;1.58;;;0.40;;
42840;SDS011;28491;46.898;7.660;2024-02-23T02:34:43;0.73;;;0.30;;
42840;SDS011;28491;46.898;7.660;2024-02-23T02:37:09;0.20;;;0.20;;
42840;SDS011;28491;46.898;7.660;2024-02-23T02:39:34;1.83;;;0.47;;
42840;SDS011;28491;46.898;7.660;2024-02-23T02:42:01;1.55;;;0.40;;
42840;SDS011;28491;46.898;7.660;2024-02-23T02:44:26;0.55;;;0.45;;
42840;SDS011;28491;46.898;7.660;2024-02-23T02:46:55;0.60;;;0.60;;
42840;SDS011;28491;46.898;7.660;2024-02-23T02:49:23;2.22;;;0.50;;
42840;SDS011;28491;46.898;7.660;2024-02-23T02:51:49;0.32;;;0.30;;
42840;SDS011;28491;46.898;7.660;2024-02-23T02:54:15;0.43;;;0.40;;
42840;SDS011;28491;46.898;7.660;2024-02-23T02:56:44;0.45;;;0.38;;
42840;SDS011;28491;46.898;7.660;2024-02-23T02:59:11;0.32;;;0.32;;
42840;SDS011;28491;46.898;7.660;2024-02-23T03:01:37;1.92;;;0.50;;
42840;SDS011;28491;46.898;7.660;2024-02-23T03:04:04;3.63;;;0.65;;
42840;SDS011;28491;46.898;7.660;2024-02-23T03:06:29;0.85;;;0.57;;
42840;SDS011;28491;46.898;7.660;2024-02-23T03:08:55;2.05;;;0.40;;
42840;SDS011;28491;46.898;7.660;2024-02-23T03:11:20;1.75;;;0.80;;
42840;SDS011;28491;46.898;7.660;2024-02-23T03:13:46;0.93;;;0.45;;
42840;SDS011;28491;46.898;7.660;2024-02-23T03:16:15;0.80;;;0.50;;
42840;SDS011;28491;46.898;7.660;2024-02-23T03:18:42;0.40;;;0.40;;
42840;SDS011;28491;46.898;7.660;2024-02-23T03:21:07;1.55;;;0.40;;
42840;SDS011;28491;46.898;7.660;2024-02-23T03:23:34;1.00;;;0.43;;
42840;SDS011;28491;46.898;7.660;2024-02-23T03:26:00;3.20;;;0.50;;
42840;SDS011;28491;46.898;7.660;2024-02-23T03:28:25;0.73;;;0.65;;
42840;SDS011;28491;46.898;7.660;2024-02-23T03:30:52;0.75;;;0.50;;
42840;SDS011;28491;46.898;7.660;2024-02-23T03:33:20;0.60;;;0.60;;
42840;SDS011;28491;46.898;7.660;2024-02-23T03:35:45;1.23;;;0.60;;
42840;SDS011;28491;46.898;7.660;2024-02-23T03:38:11;1.13;;;0.38;;
42840;SDS011;28491;46.898;7.660;2024-02-23T03:40:37;0.75;;;0.75;;
42840;SDS011;28491;46.898;7.660;2024-02-23T03:43:02;0.55;;;0.40;;
42840;SDS011;28491;46.898;7.660;2024-02-23T03:45:28;0.30;;;0.30;;
42840;SDS011;28491;46.898;7.660;2024-02-23T03:47:54;0.30;;;0.30;;
42840;SDS011;28491;46.898;7.660;2024-02-23T03:50:19;0.43;;;0.43;;
42840;SDS011;28491;46.898;7.660;2024-02-23T03:52:45;0.75;;;0.55;;
42840;SDS011;28491;46.898;7.660;2024-02-23T03:55:11;1.27;;;0.50;;
42840;SDS011;28491;46.898;7.660;2024-02-23T03:57:36;0.40;;;0.40;;
42840;SDS011;28491;46.898;7.660;2024-02-23T04:00:02;1.10;;;0.60;;
42840;SDS011;28491;46.898;7.660;2024-02-23T04:02:28;0.40;;;0.40;;
42840;SDS011;28491;46.898;7.660;2024-02-23T04:04:54;1.85;;;0.50;;
42840;SDS011;28491;46.898;7.660;2024-02-23T04:07:20;0.40;;;0.40;;
42840;SDS011;28491;46.898;7.660;2024-02-23T04:09:46;2.65;;;0.60;;
42840;SDS011;28491;46.898;7.660;2024-02-23T04:12:17;0.40;;;0.40;;
42840;SDS011;28491;46.898;7.660;2024-02-23T04:14:46;0.98;;;0.40;;
42840;SDS011;28491;46.898;7.660;2024-02-23T04:17:12;1.23;;;1.13;;
42840;SDS011;28491;46.898;7.660;2024-02-23T04:19:37;0.70;;;0.52;;
42840;SDS011;28491;46.898;7.660;2024-02-23T04:22:03;4.68;;;0.77;;
42840;SDS011;28491;46.898;7.660;2024-02-23T04:24:30;0.90;;;0.35;;
42840;SDS011;28491;46.898;7.660;2024-02-23T04:26:56;0.55;;;0.50;;
42840;SDS011;28491;46.898;7.660;2024-02-23T04:29:21;1.98;;;0.63;;
42840;SDS011;28491;46.898;7.660;2024-02-23T04:31:47;4.03;;;0.52;;
42840;SDS011;28491;46.898;7.660;2024-02-23T04:34:14;2.67;;;0.63;;
42840;SDS011;28491;46.898;7.660;2024-02-23T04:36:40;2.05;;;0.65;;
42840;SDS011;28491;46.898;7.660;2024-02-23T04:39:05;2.97;;;0.70;;
42840;SDS011;28491;46.898;7.660;2024-02-23T04:41:31;2.00;;;0.95;;
42840;SDS011;28491;46.898;7.660;2024-02-23T04:43:56;2.00;;;0.50;;
42840;SDS011;28491;46.898;7.660;2024-02-23T04:46:25;0.70;;;0.70;;
42840;SDS011;28491;46.898;7.660;2024-02-23T04:48:51;0.98;;;0.70;;
42840;SDS011;28491;46.898;7.660;2024-02-23T04:51:16;0.55;;;0.50;;
42840;SDS011;28491;46.898;7.660;2024-02-23T04:53:42;0.90;;;0.63;;
42840;SDS011;28491;46.898;7.660;2024-02-23T04:56:07;0.90;;;0.63;;
42840;SDS011;28491;46.898;7.660;2024-02-23T04:58:33;1.55;;;0.77;;
42840;SDS011;28491;46.898;7.660;2024-02-23T05:00:59;2.80;;;0.80;;
42840;SDS011;28491;46.898;7.660;2024-02-23T05:03:25;0.60;;;0.60;;
42840;SDS011;28491;46.898;7.660;2024-02-23T05:05:51;1.00;;;0.60;;
42840;SDS011;28491;46.898;7.660;2024-02-23T05:08:19;7.50;;;0.73;;
42840;SDS011;28491;46.898;7.660;2024-02-23T05:10:48;2.25;;;0.77;;
42840;SDS011;28491;46.898;7.660;2024-02-23T05:13:14;1.58;;;0.80;;
42840;SDS011;28491;46.898;7.660;2024-02-23T05:15:40;2.20;;;1.00;;
42840;SDS011;28491;46.898;7.660;2024-02-23T05:18:05;1.13;;;1.00;;
42840;SDS011;28491;46.898;7.660;2024-02-23T05:20:31;2.03;;;0.80;;
42840;SDS011;28491;46.898;7.660;2024-02-23T05:22:57;2.28;;;1.10;;
42840;SDS011;28491;46.898;7.660;2024-02-23T05:25:22;2.00;;;0.77;;
42840;SDS011;28491;46.898;7.660;2024-02-23T05:27:48;2.33;;;1.15;;
42840;SDS011;28491;46.898;7.660;2024-02-23T05:30:13;5.07;;;1.50;;
42840;SDS011;28491;46.898;7.660;2024-02-23T05:32:39;1.67;;;1.02;;
42840;SDS011;28491;46.898;7.660;2024-02-23T05:35:05;2.70;;;0.63;;
42840;SDS011;28491;46.898;7.660;2024-02-23T05:37:30;2.35;;;1.08;;
42840;SDS011;28491;46.898;7.660;2024-02-23T05:39:56;1.05;;;0.63;;
42840;SDS011;28491;46.898;7.660;2024-02-23T05:42:24;0.70;;;0.70;;
42840;SDS011;28491;46.898;7.660;2024-02-23T05:44:50;4.78;;;1.08;;
42840;SDS011;28491;46.898;7.660;2024-02-23T05:47:16;1.48;;;0.73;;
42840;SDS011;28491;46.898;7.660;2024-02-23T05:49:42;1.73;;;1.00;;
42840;SDS011;28491;46.898;7.660;2024-02-23T05:52:08;6.78;;;1.00;;
42840;SDS011;28491;46.898;7.660;2024-02-23T05:54:34;2.97;;;0.80;;
42840;SDS011;28491;46.898;7.660;2024-02-23T05:57:00;1.42;;;0.70;;
42840;SDS011;28491;46.898;7.660;2024-02-23T05:59:26;5.93;;;0.68;;
42840;SDS011;28491;46.898;7.660;2024-02-23T06:01:52;1.33;;;0.90;;
42840;SDS011;28491;46.898;7.660;2024-02-23T06:06:47;1.67;;;1.02;;
42840;SDS011;28491;46.898;7.660;2024-02-23T06:09:13;2.97;;;1.15;;
42840;SDS011;28491;46.898;7.660;2024-02-23T06:11:38;4.15;;;1.30;;
42840;SDS011;28491;46.898;7.660;2024-02-23T06:14:04;2.53;;;1.10;;
42840;SDS011;28491;46.898;7.660;2024-02-23T06:16:29;4.72;;;1.83;;
42840;SDS011;28491;46.898;7.660;2024-02-23T06:18:55;2.60;;;1.15;;
42840;SDS011;28491;46.898;7.660;2024-02-23T06:21:21;1.02;;;0.70;;
42840;SDS011;28491;46.898;7.660;2024-02-23T06:23:46;3.10;;;0.85;;
42840;SDS011;28491;46.898;7.660;2024-02-23T06:26:12;5.65;;;0.82;;
42840;SDS011;28491;46.898;7.660;2024-02-23T06:28:37;2.97;;;1.10;;
42840;SDS011;28491;46.898;7.660;2024-02-23T06:31:06;1.92;;;0.80;;
42840;SDS011;28491;46.898;7.660;2024-02-23T06:33:32;2.78;;;1.00;;
42840;SDS011;28491;46.898;7.660;2024-02-23T06:35:58;1.10;;;0.73;;
42840;SDS011;28491;46.898;7.660;2024-02-23T06:38:23;1.25;;;0.90;;
42840;SDS011;28491;46.898;7.660;2024-02-23T06:40:49;1.05;;;0.90;;
42840;SDS011;28491;46.898;7.660;2024-02-23T06:43:14;5.50;;;1.90;;
42840;SDS011;28491;46.898;7.660;2024-02-23T06:45:40;4.03;;;2.35;;
42840;SDS011;28491;46.898;7.660;2024-02-23T06:48:06;1.70;;;1.30;;
42840;SDS011;28491;46.898;7.660;2024-02-23T06:50:32;1.85;;;1.63;;
42840;SDS011;28491;46.898;7.660;2024-02-23T06:52:57;1.88;;;0.93;;
42840;SDS011;28491;46.898;7.660;2024-02-23T06:55:23;4.47;;;1.20;;
42840;SDS011;28491;46.898;7.660;2024-02-23T06:57:48;3.60;;;1.98;;
42840;SDS011;28491;46.898;7.660;2024-02-23T07:00:14;2.53;;;1.38;;
42840;SDS011;28491;46.898;7.660;2024-02-23T07:02:40;3.35;;;1.60;;
42840;SDS011;28491;46.898;7.660;2024-02-23T07:05:05;3.70;;;1.90;;
42840;SDS011;28491;46.898;7.660;2024-02-23T07:07:31;5.05;;;2.15;;
42840;SDS011;28491;46.898;7.660;2024-02-23T07:09:58;4.03;;;1.20;;
42840;SDS011;28491;46.898;7.660;2024-02-23T07:12:24;2.05;;;1.35;;
42840;SDS011;28491;46.898;7.660;2024-02-23T07:14:52;5.32;;;2.28;;
42840;SDS011;28491;46.898;7.660;2024-02-23T07:17:18;3.88;;;2.10;;
42840;SDS011;28491;46.898;7.660;2024-02-23T07:19:44;3.45;;;2.10;;
42840;SDS011;28491;46.898;7.660;2024-02-23T07:22:10;4.78;;;3.20;;
42840;SDS011;28491;46.898;7.660;2024-02-23T07:24:39;4.93;;;1.67;;
42840;SDS011;28491;46.898;7.660;2024-02-23T07:27:05;3.60;;;1.70;;
42840;SDS011;28491;46.898;7.660;2024-02-23T07:29:31;5.40;;;1.90;;
42840;SDS011;28491;46.898;7.660;2024-02-23T07:31:56;4.13;;;2.20;;
42840;SDS011;28491;46.898;7.660;2024-02-23T07:34:22;2.70;;;1.42;;
42840;SDS011;28491;46.898;7.660;2024-02-23T07:36:47;3.38;;;1.60;;
42840;SDS011;28491;46.898;7.660;2024-02-23T07:39:16;2.40;;;1.42;;
42840;SDS011;28491;46.898;7.660;2024-02-23T07:41:42;3.40;;;1.60;;
42840;SDS011;28491;46.898;7.660;2024-02-23T07:44:07;3.03;;;1.42;;
42840;SDS011;28491;46.898;7.660;2024-02-23T07:46:33;4.38;;;2.60;;
42840;SDS011;28491;46.898;7.660;2024-02-23T07:48:58;5.80;;;2.50;;
42840;SDS011;28491;46.898;7.660;2024-02-23T07:51:24;6.30;;;2.00;;
42840;SDS011;28491;46.898;7.660;2024-02-23T07:53:50;5.22;;;2.35;;
42840;SDS011;28491;46.898;7.660;2024-02-23T07:56:15;6.03;;;1.85;;
42840;SDS011;28491;46.898;7.660;2024-02-23T07:58:41;4.25;;;1.73;;
42840;SDS011;28491;46.898;7.660;2024-02-23T08:01:07;7.38;;;2.20;;
42840;SDS011;28491;46.898;7.660;2024-02-23T08:03:33;7.45;;;3.30;;
42840;SDS011;28491;46.898;7.660;2024-02-23T08:05:58;4.07;;;2.72;;
42840;SDS011;28491;46.898;7.660;2024-02-23T08:08:24;3.25;;;1.98;;
42840;SDS011;28491;46.898;7.660;2024-02-23T08:10:52;8.43;;;2.88;;
42840;SDS011;28491;46.898;7.660;2024-02-23T08:13:17;3.63;;;1.75;;
42840;SDS011;28491;46.898;7.660;2024-02-23T08:15:43;8.77;;;1.88;;
42840;SDS011;28491;46.898;7.660;2024-02-23T08:18:09;4.60;;;1.98;;
42840;SDS011;28491;46.898;7.660;2024-02-23T08:20:35;6.32;;;2.05;;
42840;SDS011;28491;46.898;7.660;2024-02-23T08:23:01;6.35;;;2.17;;
42840;SDS011;28491;46.898;7.660;2024-02-23T08:25:27;2.78;;;1.20;;
42840;SDS011;28491;46.898;7.660;2024-02-23T08:27:56;1.90;;;1.25;;
42840;SDS011;28491;46.898;7.660;2024-02-23T08:30:22;2.47;;;1.50;;
42840;SDS011;28491;46.898;7.660;2024-02-23T08:32:48;1.98;;;1.30;;
42840;SDS011;28491;46.898;7.660;2024-02-23T08:35:14;3.50;;;1.20;;
42840;SDS011;28491;46.898;7.660;2024-02-23T08:37:40;4.38;;;1.50;;
42840;SDS011;28491;46.898;7.660;2024-02-23T08:40:07;1.98;;;1.23;;
42840;SDS011;28491;46.898;7.660;2024-02-23T08:42:33;2.40;;;1.50;;
42840;SDS011;28491;46.898;7.660;2024-02-23T08:44:59;3.90;;;1.20;;
42840;SDS011;28491;46.898;7.660;2024-02-23T08:47:25;3.53;;;1.27;;
42840;SDS011;28491;46.898;7.660;2024-02-23T08:49:53;3.53;;;1.40;;
42840;SDS011;28491;46.898;7.660;2024-02-23T08:52:18;1.52;;;1.02;;
42840;SDS011;28491;46.898;7.660;2024-02-23T08:54:44;2.03;;;1.08;;
42840;SDS011;28491;46.898;7.660;2024-02-23T08:57:10;2.40;;;1.05;;
42840;SDS011;28491;46.898;7.660;2024-02-23T08:59:35;2.40;;;1.77;;
42840;SDS011;28491;46.898;7.660;2024-02-23T09:02:01;2.13;;;0.98;;
42840;SDS011;28491;46.898;7.660;2024-02-23T09:04:26;3.25;;;1.45;;
42840;SDS011;28491;46.898;7.660;2024-02-23T09:06:52;1.63;;;1.25;;
42840;SDS011;28491;46.898;7.660;2024-02-23T09:09:18;1.17;;;0.73;;
42840;SDS011;28491;46.898;7.660;2024-02-23T09:11:44;4.45;;;0.98;;
42840;SDS011;28491;46.898;7.660;2024-02-23T09:14:09;2.13;;;0.90;;
42840;SDS011;28491;46.898;7.660;2024-02-23T09:16:35;1.17;;;0.80;;
42840;SDS011;28491;46.898;7.660;2024-02-23T09:19:00;3.78;;;1.30;;
42840;SDS011;28491;46.898;7.660;2024-02-23T09:21:26;1.60;;;0.70;;
42840;SDS011;28491;46.898;7.660;2024-02-23T09:23:52;2.65;;;1.45;;
42840;SDS011;28491;46.898;7.660;2024-02-23T09:26:17;1.52;;;0.85;;
42840;SDS011;28491;46.898;7.660;2024-02-23T09:28:43;3.25;;;1.48;;
42840;SDS011;28491;46.898;7.660;2024-02-23T09:31:10;0.90;;;0.70;;
42840;SDS011;28491;46.898;7.660;2024-02-23T09:33:36;1.42;;;0.93;;
42840;SDS011;28491;46.898;7.660;2024-02-23T09:36:02;1.98;;;0.80;;
42840;SDS011;28491;46.898;7.660;2024-02-23T09:38:27;1.02;;;0.80;;
42840;SDS011;28491;46.898;7.660;2024-02-23T09:40:53;0.98;;;0.65;;
42840;SDS011;28491;46.898;7.660;2024-02-23T09:43:20;1.65;;;0.90;;
42840;SDS011;28491;46.898;7.660;2024-02-23T09:45:47;1.25;;;0.98;;
42840;SDS011;28491;46.898;7.660;2024-02-23T09:48:16;1.00;;;0.90;;
42840;SDS011;28491;46.898;7.660;2024-02-23T09:50:43;1.30;;;0.80;;
42840;SDS011;28491;46.898;7.660;2024-02-23T09:53:11;2.88;;;1.00;;
42840;SDS011;28491;46.898;7.660;2024-02-23T09:55:38;2.75;;;0.70;;
42840;SDS011;28491;46.898;7.660;2024-02-23T09:58:03;3.03;;;1.10;;
42840;SDS011;28491;46.898;7.660;2024-02-23T10:00:31;1.67;;;1.00;;
42840;SDS011;28491;46.898;7.660;2024-02-23T10:02:59;3.30;;;0.90;;
42840;SDS011;28491;46.898;7.660;2024-02-23T10:05:29;4.30;;;1.70;;
42840;SDS011;28491;46.898;7.660;2024-02-23T10:07:55;1.98;;;0.73;;
42840;SDS011;28491;46.898;7.660;2024-02-23T10:10:45;4.82;;;2.30;;
42840;SDS011;28491;46.898;7.660;2024-02-23T10:13:10;2.27;;;0.70;;
42840;SDS011;28491;46.898;7.660;2024-02-23T10:15:36;1.42;;;0.90;;
42840;SDS011;28491;46.898;7.660;2024-02-23T10:18:09;1.88;;;0.75;;
42840;SDS011;28491;46.898;7.660;2024-02-23T10:20:35;1.27;;;0.70;;
42840;SDS011;28491;46.898;7.660;2024-02-23T10:23:02;2.00;;;0.50;;
42840;SDS011;28491;46.898;7.660;2024-02-23T10:25:36;1.20;;;0.70;;
42840;SDS011;28491;46.898;7.660;2024-02-23T10:28:05;1.55;;;0.95;;
42840;SDS011;28491;46.898;7.660;2024-02-23T10:30:31;0.90;;;0.70;;
42840;SDS011;28491;46.898;7.660;2024-02-23T10:32:57;1.65;;;0.68;;
42840;SDS011;28491;46.898;7.660;2024-02-23T10:35:23;1.92;;;0.80;;
42840;SDS011;28491;46.898;7.660;2024-02-23T10:37:50;2.70;;;0.93;;
42840;SDS011;28491;46.898;7.660;2024-02-23T10:40:19;2.70;;;0.98;;
42840;SDS011;28491;46.898;7.660;2024-02-23T10:42:47;1.58;;;0.70;;
42840;SDS011;28491;46.898;7.660;2024-02-23T10:45:18;2.30;;;0.90;;
42840;SDS011;28491;46.898;7.660;2024-02-23T10:47:45;2.33;;;0.80;;
42840;SDS011;28491;46.898;7.660;2024-02-23T10:50:15;0.82;;;0.70;;
42840;SDS011;28491;46.898;7.660;2024-02-23T10:52:44;3.72;;;0.70;;
42840;SDS011;28491;46.898;7.660;2024-02-23T10:55:14;1.63;;;0.80;;
42840;SDS011;28491;46.898;7.660;2024-02-23T10:57:40;2.90;;;1.35;;
42840;SDS011;28491;46.898;7.660;2024-02-23T11:00:06;1.60;;;0.90;;
42840;SDS011;28491;46.898;7.660;2024-02-23T11:02:41;2.85;;;0.70;;
42840;SDS011;28491;46.898;7.660;2024-02-23T11:05:10;1.42;;;1.33;;
42840;SDS011;28491;46.898;7.660;2024-02-23T11:07:40;2.17;;;0.50;;
42840;SDS011;28491;46.898;7.660;2024-02-23T11:10:06;1.17;;;0.80;;
42840;SDS011;28491;46.898;7.660;2024-02-23T11:12:34;0.60;;;0.60;;
42840;SDS011;28491;46.898;7.660;2024-02-23T11:15:00;4.22;;;1.20;;
42840;SDS011;28491;46.898;7.660;2024-02-23T11:17:30;4.53;;;1.48;;
42840;SDS011;28491;46.898;7.660;2024-02-23T11:19:57;0.82;;;0.77;;
42840;SDS011;28491;46.898;7.660;2024-02-23T11:22:26;0.68;;;0.63;;
42840;SDS011;28491;46.898;7.660;2024-02-23T11:24:59;1.35;;;0.80;;
42840;SDS011;28491;46.898;7.660;2024-02-23T11:27:29;2.25;;;1.05;;
42840;SDS011;28491;46.898;7.660;2024-02-23T11:29:59;1.00;;;0.85;;
42840;SDS011;28491;46.898;7.660;2024-02-23T11:32:39;1.35;;;0.88;;
42840;SDS011;28491;46.898;7.660;2024-02-23T11:35:06;1.35;;;0.80;;
42840;SDS011;28491;46.898;7.660;2024-02-23T11:37:43;1.80;;;0.95;;
42840;SDS011;28491;46.898;7.660;2024-02-23T11:40:30;2.58;;;1.17;;
42840;SDS011;28491;46.898;7.660;2024-02-23T11:42:56;0.65;;;0.60;;
42840;SDS011;28491;46.898;7.660;2024-02-23T11:45:22;1.67;;;0.60;;
42840;SDS011;28491;46.898;7.660;2024-02-23T11:47:49;0.80;;;0.52;;
42840;SDS011;28491;46.898;7.660;2024-02-23T11:50:14;1.40;;;0.50;;
42840;SDS011;28491;46.898;7.660;2024-02-23T11:52:41;0.43;;;0.43;;
42840;SDS011;28491;46.898;7.660;2024-02-23T11:55:07;1.02;;;0.60;;
42840;SDS011;28491;46.898;7.660;2024-02-23T11:57:36;0.57;;;0.50;;
42840;SDS011;28491;46.898;7.660;2024-02-23T12:00:03;0.82;;;0.40;;
42840;SDS011;28491;46.898;7.660;2024-02-23T12:02:31;0.50;;;0.47;;
42840;SDS011;28491;46.898;7.660;2024-02-23T12:04:57;2.33;;;0.70;;
42840;SDS011;28491;46.898;7.660;2024-02-23T12:07:23;2.25;;;0.60;;
42840;SDS011;28491;46.898;7.660;2024-02-23T12:09:51;1.90;;;0.35;;
42840;SDS011;28491;46.898;7.660;2024-02-23T12:12:17;0.35;;;0.30;;
42840;SDS011;28491;46.898;7.660;2024-02-23T12:14:42;0.75;;;0.30;;
42840;SDS011;28491;46.898;7.660;2024-02-23T12:17:08;2.30;;;0.90;;
42840;SDS011;28491;46.898;7.660;2024-02-23T12:19:40;0.60;;;0.45;;
42840;SDS011;28491;46.898;7.660;2024-02-23T12:22:06;2.33;;;0.50;;
42840;SDS011;28491;46.898;7.660;2024-02-23T12:24:31;0.90;;;0.35;;
42840;SDS011;28491;46.898;7.660;2024-02-23T12:26:57;2.65;;;0.55;;
42840;SDS011;28491;46.898;7.660;2024-02-23T12:29:23;3.17;;;0.70;;
42840;SDS011;28491;46.898;7.660;2024-02-23T12:31:49;1.95;;;0.60;;
42840;SDS011;28491;46.898;7.660;2024-02-23T12:34:15;1.15;;;0.82;;
42840;SDS011;28491;46.898;7.660;2024-02-23T12:36:41;0.82;;;0.30;;
42840;SDS011;28491;46.898;7.660;2024-02-23T12:39:07;0.55;;;0.40;;
42840;SDS011;28491;46.898;7.660;2024-02-23T12:41:33;2.47;;;0.55;;
42840;SDS011;28491;46.898;7.660;2024-02-23T12:43:59;0.82;;;0.47;;
42840;SDS011;28491;46.898;7.660;2024-02-23T12:46:24;0.32;;;0.32;;
42840;SDS011;28491;46.898;7.660;2024-02-23T12:48:50;3.70;;;0.88;;
42840;SDS011;28491;46.898;7.660;2024-02-23T12:51:16;0.47;;;0.40;;
42840;SDS011;28491;46.898;7.660;2024-02-23T12:53:43;1.20;;;0.50;;
42840;SDS011;28491;46.898;7.660;2024-02-23T12:56:12;0.30;;;0.30;;
42840;SDS011;28491;46.898;7.660;2024-02-23T12:58:42;0.75;;;0.50;;
42840;SDS011;28491;46.898;7.660;2024-02-23T13:01:08;0.43;;;0.40;;
42840;SDS011;28491;46.898;7.660;2024-02-23T13:03:35;1.08;;;0.52;;
42840;SDS011;28491;46.898;7.660;2024-02-23T13:06:03;1.75;;;0.82;;
42840;SDS011;28491;46.898;7.660;2024-02-23T13:08:30;2.30;;;0.63;;
42840;SDS011;28491;46.898;7.660;2024-02-23T13:10:56;2.05;;;0.57;;
42840;SDS011;28491;46.898;7.660;2024-02-23T13:13:22;0.77;;;0.60;;
42840;SDS011;28491;46.898;7.660;2024-02-23T13:15:48;1.40;;;0.57;;
42840;SDS011;28491;46.898;7.660;2024-02-23T13:18:15;0.65;;;0.50;;
42840;SDS011;28491;46.898;7.660;2024-02-23T13:20:41;0.80;;;0.70;;
42840;SDS011;28491;46.898;7.660;2024-02-23T13:23:07;1.00;;;0.50;;
42840;SDS011;28491;46.898;7.660;2024-02-23T13:25:34;0.80;;;0.80;;
42840;SDS011;28491;46.898;7.660;2024-02-23T13:28:00;1.75;;;0.50;;
42840;SDS011;28491;46.898;7.660;2024-02-23T13:30:26;0.30;;;0.30;;
42840;SDS011;28491;46.898;7.660;2024-02-23T13:32:52;2.15;;;0.80;;
42840;SDS011;28491;46.898;7.660;2024-02-23T13:35:18;1.25;;;0.73;;
42840;SDS011;28491;46.898;7.660;2024-02-23T13:37:44;4.38;;;0.95;;
42840;SDS011;28491;46.898;7.660;2024-02-23T13:40:09;0.88;;;0.52;;
42840;SDS011;28491;46.898;7.660;2024-02-23T13:42:36;0.75;;;0.50;;
42840;SDS011;28491;46.898;7.660;2024-02-23T13:45:04;1.00;;;0.60;;
42840;SDS011;28491;46.898;7.660;2024-02-23T13:47:30;1.55;;;0.50;;
42840;SDS011;28491;46.898;7.660;2024-02-23T13:49:56;0.43;;;0.40;;
42840;SDS011;28491;46.898;7.660;2024-02-23T13:52:21;0.52;;;0.50;;
42840;SDS011;28491;46.898;7.660;2024-02-23T13:54:47;3.20;;;0.60;;
42840;SDS011;28491;46.898;7.660;2024-02-23T13:57:13;1.33;;;0.50;;
42840;SDS011;28491;46.898;7.660;2024-02-23T13:59:38;4.57;;;1.23;;
42840;SDS011;28491;46.898;7.660;2024-02-23T14:02:04;0.95;;;0.65;;
42840;SDS011;28491;46.898;7.660;2024-02-23T14:04:29;1.73;;;0.50;;
42840;SDS011;28491;46.898;7.660;2024-02-23T14:06:55;4.35;;;0.60;;
42840;SDS011;28491;46.898;7.660;2024-02-23T14:09:21;0.70;;;0.47;;
42840;SDS011;28491;46.898;7.660;2024-02-23T14:11:46;2.58;;;0.50;;
42840;SDS011;28491;46.898;7.660;2024-02-23T14:14:12;0.73;;;0.73;;
42840;SDS011;28491;46.898;7.660;2024-02-23T14:16:38;0.50;;;0.40;;
42840;SDS011;28491;46.898;7.660;2024-02-23T14:19:04;0.55;;;0.40;;
42840;SDS011;28491;46.898;7.660;2024-02-23T14:21:30;0.63;;;0.40;;
42840;SDS011;28491;46.898;7.660;2024-02-23T14:23:55;1.75;;;0.68;;
42840;SDS011;28491;46.898;7.660;2024-02-23T14:26:21;1.00;;;0.40;;
42840;SDS011;28491;46.898;7.660;2024-02-23T14:28:47;0.63;;;0.63;;
42840;SDS011;28491;46.898;7.660;2024-02-23T14:31:14;0.70;;;0.60;;
42840;SDS011;28491;46.898;7.660;2024-02-23T14:33:39;1.08;;;0.55;;
42840;SDS011;28491;46.898;7.660;2024-02-23T14:36:05;1.05;;;0.70;;
42840;SDS011;28491;46.898;7.660;2024-02-23T14:38:31;3.33;;;0.52;;
42840;SDS011;28491;46.898;7.660;2024-02-23T14:40:57;1.40;;;0.60;;
42840;SDS011;28491;46.898;7.660;2024-02-23T14:43:23;2.25;;;0.57;;
42840;SDS011;28491;46.898;7.660;2024-02-23T14:45:48;1.02;;;0.50;;
42840;SDS011;28491;46.898;7.660;2024-02-23T14:48:16;2.00;;;0.80;;